createdAt,value
2022-10-26T00:02:32.819Z,79.20
2022-10-26T00:06:34.415Z,79.32
2022-10-26T00:10:38.788Z,79.54
2022-10-26T00:14:40.197Z,79.05
2022-10-26T00:18:42.545Z,79.28
2022-10-26T00:22:44.112Z,79.42
2022-10-26T00:26:47.225Z,79.88
2022-10-26T00:30:48.760Z,80.34
2022-10-26T00:34:50.321Z,80.42
2022-10-26T00:38:53.288Z,79.96
2022-10-26T00:42:56.561Z,78.42
2022-10-26T00:46:58.077Z,78.72
2022-10-26T00:51:02.356Z,78.37
2022-10-26T00:55:05.602Z,78.87
2022-10-26T00:59:11.733Z,79.22
2022-10-26T01:03:13.265Z,79.81
2022-10-26T01:07:14.982Z,80.62
2022-10-26T01:11:16.721Z,80.60
2022-10-26T01:15:23.720Z,80.56
2022-10-26T01:20:00.506Z,79.95
2022-10-26T01:24:34.186Z,80.06
2022-10-26T01:28:53.341Z,80.30
2022-10-26T01:33:16.700Z,79.66
2022-10-26T01:37:24.721Z,79.72
2022-10-26T01:41:30.266Z,79.61
2022-10-26T01:45:33.738Z,79.73
2022-10-26T01:49:40.387Z,79.53
2022-10-26T01:53:45.585Z,80.06
2022-10-26T01:57:47.298Z,79.11
2022-10-26T02:02:22.632Z,79.55
2022-10-26T02:06:36.729Z,80.09
2022-10-26T02:10:48.225Z,79.99
2022-10-26T02:14:55.737Z,79.70
2022-10-26T02:19:02.729Z,79.34
2022-10-26T02:23:08.009Z,79.86
2022-10-26T02:27:16.076Z,79.88
2022-10-26T02:31:19.478Z,79.77
2022-10-26T02:35:25.730Z,79.54
2022-10-26T02:39:31.210Z,79.15
2022-10-26T02:43:38.274Z,79.20
2022-10-26T02:47:39.941Z,79.17
2022-10-26T02:55:55.006Z,79.24
2022-10-26T02:59:57.719Z,78.18
2022-10-26T03:04:00.310Z,78.21
2022-10-26T03:08:01.880Z,77.61
2022-10-26T03:12:05.497Z,78.52
2022-10-26T03:16:07.392Z,77.76
2022-10-26T03:20:09.728Z,77.78
2022-10-26T03:24:11.288Z,78.31
2022-10-26T03:28:14.172Z,78.48
2022-10-26T03:32:15.740Z,77.90
2022-10-26T03:36:17.313Z,78.47
2022-10-26T03:40:18.736Z,77.83
2022-10-26T03:44:21.708Z,77.77
2022-10-26T03:48:23.276Z,77.73
2022-10-26T03:52:25.108Z,77.62
2022-10-26T03:56:26.585Z,76.80
2022-10-26T04:00:29.513Z,76.70
2022-10-26T04:04:31.059Z,76.33
2022-10-26T04:08:32.579Z,76.10
2022-10-26T04:12:36.875Z,75.39
2022-10-26T04:16:39.772Z,75.09
2022-10-26T04:20:41.521Z,74.94
2022-10-26T04:24:43.096Z,74.46
2022-10-26T04:28:44.656Z,74.02
2022-10-26T04:32:47.875Z,73.70
2022-10-26T04:36:49.440Z,74.02
2022-10-26T04:40:51.029Z,74.48
2022-10-26T04:44:52.577Z,74.26
2022-10-26T04:48:55.457Z,74.29
2022-10-26T04:52:57.601Z,73.41
2022-10-26T04:56:59.184Z,72.62
2022-10-26T05:01:01.274Z,72.92
2022-10-26T05:05:04.668Z,72.92
2022-10-26T05:09:06.154Z,72.12
2022-10-26T05:13:09.147Z,71.60
2022-10-26T05:17:10.582Z,69.98
2022-10-26T05:21:13.437Z,69.64
2022-10-26T05:25:16.194Z,69.43
2022-10-26T05:29:17.601Z,69.04
2022-10-26T05:33:18.976Z,69.08
2022-10-26T05:37:21.721Z,69.37
2022-10-26T05:41:23.238Z,69.66
2022-10-26T05:45:24.655Z,69.10
2022-10-26T05:49:26.229Z,69.70
2022-10-26T05:53:29.039Z,70.56
2022-10-26T05:57:31.148Z,70.58
2022-10-26T06:01:43.854Z,71.39
2022-10-26T06:05:52.269Z,72.87
2022-10-26T06:09:55.628Z,73.49
2022-10-26T06:13:57.690Z,74.25
2022-10-26T06:18:06.041Z,74.42
2022-10-26T06:22:23.554Z,75.50
2022-10-26T06:26:40.228Z,76.50
2022-10-26T06:30:41.808Z,78.71
2022-10-26T06:34:47.879Z,79.48
2022-10-26T06:38:53.454Z,79.50
2022-10-26T06:42:56.748Z,81.27
2022-10-26T06:47:06.013Z,80.84
2022-10-26T06:51:12.327Z,82.08
2022-10-26T06:55:15.561Z,83.63
2022-10-26T06:59:30.350Z,84.41
2022-10-26T07:03:31.911Z,83.68
2022-10-26T07:07:37.083Z,83.56
2022-10-26T07:11:38.452Z,83.30
2022-10-26T07:15:41.229Z,83.12
2022-10-26T07:19:42.651Z,83.89
2022-10-26T07:23:44.255Z,82.97
2022-10-26T07:27:45.636Z,81.63
2022-10-26T07:31:48.721Z,81.17
2022-10-26T07:35:50.328Z,80.34
2022-10-26T07:39:51.874Z,80.44
2022-10-26T07:43:53.414Z,79.41
2022-10-26T07:47:56.649Z,79.48
2022-10-26T07:51:58.044Z,79.80
2022-10-26T07:55:59.651Z,79.61
2022-10-26T08:00:01.048Z,78.49
2022-10-26T08:04:03.937Z,76.92
2022-10-26T08:08:05.403Z,76.05
2022-10-26T08:12:07.206Z,77.23
2022-10-26T08:16:09.012Z,76.01
2022-10-26T08:20:12.196Z,75.08
2022-10-26T08:24:13.690Z,73.54
2022-10-26T08:28:15.263Z,75.02
2022-10-26T08:32:16.832Z,73.82
2022-10-26T08:36:23.823Z,71.39
2022-10-26T08:40:28.302Z,70.72
2022-10-26T08:44:36.134Z,70.28
2022-10-26T08:48:42.871Z,71.25
2022-10-26T08:52:49.982Z,71.08
2022-10-26T08:56:55.465Z,71.33
2022-10-26T09:00:58.332Z,70.18
2022-10-26T09:05:00.408Z,70.54
2022-10-26T09:09:10.112Z,69.52
2022-10-26T09:13:22.039Z,69.99
2022-10-26T09:17:33.894Z,71.13
2022-10-26T09:21:43.198Z,69.78
2022-10-26T09:25:57.676Z,70.61
2022-10-26T09:30:03.786Z,70.80
2022-10-26T09:34:07.714Z,69.56
2022-10-26T09:38:17.649Z,69.87
2022-10-26T09:42:26.240Z,69.79
2022-10-26T09:46:32.597Z,69.52
2022-10-26T09:50:36.904Z,69.49
2022-10-26T09:54:38.501Z,69.64
2022-10-26T09:58:43.689Z,68.17
2022-10-26T10:02:51.932Z,68.95
2022-10-26T10:07:12.712Z,67.95
2022-10-26T10:11:15.160Z,63.46
2022-10-26T10:15:21.390Z,59.77
2022-10-26T10:19:25.708Z,60.34
2022-10-26T10:23:30.739Z,56.93
2022-10-26T10:27:32.311Z,55.87
2022-10-26T10:31:35.116Z,52.38
2022-10-26T10:35:39.539Z,52.92
2022-10-26T10:39:42.282Z,51.56
2022-10-26T10:43:46.979Z,49.64
2022-10-26T10:48:02.112Z,48.81
2022-10-26T10:52:04.387Z,47.99
2022-10-26T10:56:27.251Z,47.97
2022-10-26T11:00:31.010Z,47.22
2022-10-26T11:04:57.094Z,48.04
2022-10-26T11:09:02.323Z,47.73
2022-10-26T11:13:15.302Z,48.33
2022-10-26T11:17:21.092Z,46.66
2022-10-26T11:21:28.254Z,46.40
2022-10-26T11:25:35.347Z,47.02
2022-10-26T11:29:44.639Z,46.72
2022-10-26T11:33:59.446Z,45.17
2022-10-26T11:38:09.599Z,46.03
2022-10-26T11:42:22.382Z,44.74
2022-10-26T11:46:28.279Z,45.50
2022-10-26T11:50:34.035Z,45.79
2022-10-26T11:54:41.425Z,46.63
2022-10-26T11:58:45.607Z,47.28
2022-10-26T12:02:50.509Z,46.27
2022-10-26T12:06:54.711Z,48.61
2022-10-26T12:11:05.220Z,46.05
2022-10-26T12:15:30.811Z,47.12
2022-10-26T12:19:50.281Z,47.67
2022-10-26T12:23:57.077Z,50.40
2022-10-26T12:27:59.787Z,50.45
2022-10-26T12:32:01.322Z,49.88
2022-10-26T12:36:02.852Z,50.02
2022-10-26T12:40:39.772Z,49.89
2022-10-26T12:45:02.241Z,50.30
2022-10-26T12:49:04.070Z,48.61
2022-10-26T12:53:07.976Z,49.66
2022-10-26T12:57:23.485Z,48.38
2022-10-26T13:02:03.548Z,48.00
2022-10-26T13:06:22.809Z,48.37
2022-10-26T13:10:26.253Z,50.62
2022-10-26T13:14:33.863Z,50.72
2022-10-26T13:18:42.307Z,50.19
2022-10-26T13:22:47.315Z,49.48
2022-10-26T13:27:24.684Z,49.42
2022-10-26T13:31:55.065Z,49.31
2022-10-26T13:35:59.425Z,49.56
2022-10-26T13:40:04.696Z,50.06
2022-10-26T13:44:14.057Z,49.33
2022-10-26T13:48:22.568Z,50.41
2022-10-26T13:52:32.909Z,51.42
2022-10-26T13:56:42.730Z,53.81
2022-10-26T14:01:12.263Z,52.74
2022-10-26T14:05:16.988Z,51.94
2022-10-26T14:09:22.057Z,50.29
2022-10-26T14:13:25.566Z,51.66
2022-10-26T14:17:27.003Z,52.60
2022-10-26T14:21:28.628Z,52.46
2022-10-26T14:25:42.651Z,53.77
2022-10-26T14:30:17.124Z,51.98
2022-10-26T14:34:17.593Z,53.57
2022-10-26T14:38:22.240Z,53.95
2022-10-26T14:42:28.772Z,56.24
2022-10-26T14:46:34.419Z,56.55
2022-10-26T14:50:36.100Z,55.17
2022-10-26T14:54:37.555Z,57.65
2022-10-26T14:58:40.563Z,59.49
2022-10-26T15:02:44.230Z,59.43
2022-10-26T15:06:46.506Z,60.56
2022-10-26T15:10:48.608Z,60.75
2022-10-26T15:14:52.399Z,61.98
2022-10-26T15:18:57.588Z,62.85
2022-10-26T15:23:01.680Z,63.09
2022-10-26T15:27:04.752Z,64.54
2022-10-26T15:31:31.694Z,65.70
2022-10-26T15:35:33.291Z,66.02
2022-10-26T15:39:34.696Z,67.14
2022-10-26T15:43:37.436Z,67.90
2022-10-26T15:47:40.292Z,68.03
2022-10-26T15:51:46.576Z,69.03
2022-10-26T15:55:48.540Z,69.50
2022-10-26T15:59:49.966Z,69.02
2022-10-26T16:03:53.315Z,69.37
2022-10-26T16:07:55.015Z,70.87
2022-10-26T16:11:57.792Z,70.29
2022-10-26T16:15:59.475Z,69.64
2022-10-26T16:20:05.375Z,69.98
2022-10-26T16:24:10.363Z,69.76
2022-10-26T16:28:14.200Z,70.39
2022-10-26T16:32:15.739Z,70.13
2022-10-26T16:36:18.480Z,71.41
2022-10-26T16:40:20.011Z,71.41
2022-10-26T16:44:21.432Z,71.17
2022-10-26T16:48:22.905Z,70.91
2022-10-26T16:52:27.609Z,71.16
2022-10-26T16:56:29.723Z,72.05
2022-10-26T17:00:31.467Z,72.24
2022-10-26T17:04:32.891Z,72.96
2022-10-26T17:08:36.361Z,73.32
2022-10-26T17:12:38.026Z,73.67
2022-10-26T17:16:39.612Z,73.82
2022-10-26T17:20:49.181Z,74.03
2022-10-26T17:24:51.993Z,74.13
2022-10-26T17:28:54.966Z,74.26
2022-10-26T17:32:56.666Z,73.80
2022-10-26T17:36:58.084Z,75.16
2022-10-26T17:41:02.061Z,75.70
2022-10-26T17:45:04.281Z,75.50
2022-10-26T17:49:05.913Z,75.93
2022-10-26T17:53:07.467Z,75.54
2022-10-26T17:57:10.267Z,75.86
2022-10-26T18:01:13.255Z,75.94
2022-10-26T18:05:14.749Z,75.70
2022-10-26T18:09:16.173Z,75.39
2022-10-26T18:13:19.221Z,75.56
2022-10-26T18:17:20.633Z,76.46
2022-10-26T18:21:22.133Z,75.94
2022-10-26T18:25:23.901Z,75.68
2022-10-26T18:29:26.822Z,75.02
2022-10-26T18:33:32.929Z,75.90
2022-10-26T18:37:36.125Z,76.12
2022-10-26T18:41:37.565Z,76.18
2022-10-26T18:45:40.346Z,76.95
2022-10-26T18:49:41.750Z,77.16
2022-10-26T18:53:44.521Z,77.44
2022-10-26T18:57:45.905Z,77.36
2022-10-26T19:01:49.570Z,77.74
2022-10-26T19:05:51.085Z,77.96
2022-10-26T19:09:52.639Z,77.93
2022-10-26T19:13:54.642Z,78.19
2022-10-26T19:17:57.873Z,78.71
2022-10-26T19:21:59.289Z,78.22
2022-10-26T19:26:00.933Z,78.94
2022-10-26T19:30:02.336Z,79.04
2022-10-26T19:34:05.280Z,79.32
2022-10-26T19:38:06.837Z,79.64
2022-10-26T19:42:08.253Z,79.32
2022-10-26T19:46:12.113Z,80.30
2022-10-26T19:50:15.112Z,80.55
2022-10-26T19:54:16.672Z,80.64
2022-10-26T19:58:18.113Z,81.04
2022-10-26T20:02:19.688Z,81.88
2022-10-26T20:06:22.669Z,81.38
2022-10-26T20:10:25.829Z,82.11
2022-10-26T20:14:27.289Z,82.63
2022-10-26T20:18:28.829Z,82.38
2022-10-26T20:22:31.661Z,82.90
2022-10-26T20:26:33.061Z,83.38
2022-10-26T20:30:36.549Z,82.05
2022-10-26T20:34:41.333Z,80.66
2022-10-26T20:38:47.464Z,80.20
2022-10-26T20:46:56.531Z,79.90
2022-10-26T20:51:04.965Z,80.53
2022-10-26T20:55:17.733Z,82.62
2022-10-26T20:59:26.030Z,82.19
2022-10-26T21:03:27.897Z,82.19
2022-10-26T21:07:29.465Z,83.70
2022-10-26T21:11:32.533Z,84.89
2022-10-26T21:15:34.761Z,84.27
2022-10-26T21:19:36.364Z,84.16
2022-10-26T21:23:39.466Z,85.12
2022-10-26T21:27:42.252Z,84.41
2022-10-26T21:31:43.873Z,85.69
2022-10-26T21:35:52.735Z,85.22
2022-10-26T21:39:54.246Z,84.80
2022-10-26T21:44:08.364Z,85.13
2022-10-26T21:48:11.344Z,84.70
2022-10-26T21:52:12.796Z,85.57
2022-10-26T21:56:16.761Z,85.88
2022-10-26T22:00:19.494Z,85.87
2022-10-26T22:04:21.033Z,85.91
2022-10-26T22:08:22.424Z,86.00
2022-10-26T22:12:24.100Z,85.65
2022-10-26T22:16:28.430Z,85.41
2022-10-26T22:20:29.881Z,85.40
2022-10-26T22:24:31.306Z,85.41
2022-10-26T22:28:34.663Z,86.06
2022-10-26T22:32:39.409Z,85.29
2022-10-26T22:36:40.996Z,85.62
2022-10-26T22:40:42.576Z,85.73
2022-10-26T22:44:43.992Z,86.55
2022-10-26T22:48:47.534Z,86.14
2022-10-26T22:52:49.236Z,85.97
2022-10-26T22:56:50.992Z,85.41
2022-10-26T23:00:52.590Z,85.70
2022-10-26T23:04:55.658Z,86.27
2022-10-26T23:08:57.668Z,86.03
2022-10-26T23:12:59.301Z,86.11
2022-10-26T23:17:01.013Z,86.44
2022-10-26T23:21:04.977Z,86.27
2022-10-26T23:25:07.004Z,86.29
2022-10-26T23:29:11.184Z,86.31
2022-10-26T23:33:12.688Z,87.07
2022-10-26T23:37:15.673Z,88.26
2022-10-26T23:41:17.269Z,87.56
2022-10-26T23:45:18.920Z,88.46
2022-10-26T23:49:20.360Z,87.45
2022-10-26T23:53:26.817Z,88.60
2022-10-26T23:57:28.536Z,88.97
